Blackfish, Arkansas
Current Conditions -  °F | °C
As of 11:53 AM on Sunday 25 Jan 2015 (Local Time) from KAWM Reporting Station
Broken Clouds Broken Clouds  
Wind Chill:   Ceiling: 6000
Heat Index:   Visibility: 10mi
Dew Point:   Wind: 9mph
Humidity: 83%   Direction: 230°SW
Pressure: 29.7"   Gusts: 20mph
Location:  35.0663°N, 90.4665°W
Report Text: KAWM 251753Z AUTO 23008G17KT 10SM BKN060 09/07 A2970 RMK AO2 RAE05 SLP056 P0000 60005 T00940067 10094 20022 58010
Loading
Personal Weather Stations






























Interactive Weather Map New forecast layout! Learn more

10-Day Weather Forecast

Advertisements
Track Severe Weather on mobile